createdAt,value
2018-04-09T00:00:36.059Z,64.38
2018-04-09T00:01:43.637Z,64.53
2018-04-09T00:02:50.466Z,64.59
2018-04-09T00:03:59.364Z,64.69
2018-04-09T00:05:05.981Z,64.80
2018-04-09T00:06:13.255Z,64.83
2018-04-09T00:07:18.022Z,64.82
2018-04-09T00:08:23.823Z,64.77
2018-04-09T00:09:29.261Z,64.77
2018-04-09T00:10:35.103Z,64.74
2018-04-09T00:11:41.815Z,64.78
2018-04-09T00:12:47.545Z,64.66
2018-04-09T00:13:53.650Z,64.77
2018-04-09T00:14:59.073Z,64.81
2018-04-09T00:16:06.439Z,64.84
2018-04-09T00:17:13.495Z,64.84
2018-04-09T00:18:18.759Z,64.85
2018-04-09T00:19:23.802Z,64.65
2018-04-09T00:20:29.580Z,64.61
2018-04-09T00:21:35.074Z,64.72
2018-04-09T00:22:42.764Z,64.81
2018-04-09T00:23:50.488Z,64.90
2018-04-09T00:24:56.072Z,65.12
2018-04-09T00:26:01.145Z,65.14
2018-04-09T00:27:06.263Z,65.05
2018-04-09T00:28:11.537Z,64.99
2018-04-09T00:29:20.041Z,64.74
2018-04-09T00:30:25.676Z,64.46
2018-04-09T00:31:30.289Z,64.21
2018-04-09T00:32:34.904Z,64.07
2018-04-09T00:33:39.833Z,63.85
2018-04-09T00:34:47.295Z,63.67
2018-04-09T00:36:00.112Z,63.45
2018-04-09T00:37:05.746Z,63.38
2018-04-09T00:38:11.323Z,63.31
2018-04-09T00:39:16.775Z,63.28
2018-04-09T00:40:23.599Z,63.44
2018-04-09T00:41:28.595Z,63.99
2018-04-09T00:42:33.782Z,64.39
2018-04-09T00:43:38.569Z,64.60
2018-04-09T00:44:44.324Z,64.68
2018-04-09T00:45:54.320Z,64.54
2018-04-09T00:47:02.444Z,64.59
2018-04-09T00:48:08.559Z,64.65
2018-04-09T00:49:15.808Z,64.68
2018-04-09T00:50:22.902Z,64.65
2018-04-09T00:51:29.759Z,64.77
2018-04-09T00:52:35.466Z,64.78
2018-04-09T00:53:47.919Z,64.93
2018-04-09T00:54:53.755Z,65.10
2018-04-09T00:55:59.384Z,65.19
2018-04-09T00:57:04.585Z,65.34
2018-04-09T00:58:09.222Z,65.43
2018-04-09T00:59:15.397Z,65.37
2018-04-09T01:00:21.713Z,65.23
2018-04-09T01:01:27.106Z,65.00
2018-04-09T01:02:32.140Z,65.16
2018-04-09T01:03:36.944Z,65.16
2018-04-09T01:04:43.464Z,65.14
2018-04-09T01:05:48.334Z,65.04
2018-04-09T01:06:55.185Z,65.30
2018-04-09T01:08:01.596Z,65.57
2018-04-09T01:09:06.956Z,65.85
2018-04-09T01:10:11.758Z,66.10
2018-04-09T01:11:17.428Z,66.29
2018-04-09T01:12:25.807Z,66.25
2018-04-09T01:13:34.462Z,66.37
2018-04-09T01:14:40.156Z,66.50
2018-04-09T01:15:46.256Z,66.53
2018-04-09T01:16:51.070Z,66.62
2018-04-09T01:17:55.719Z,66.47
2018-04-09T01:19:00.688Z,66.36
2018-04-09T01:20:07.515Z,66.55
2018-04-09T01:21:14.474Z,66.71
2018-04-09T01:22:20.205Z,66.82
2018-04-09T01:23:26.789Z,66.85
2018-04-09T01:24:32.667Z,66.88
2018-04-09T01:25:38.088Z,66.89
2018-04-09T01:26:44.453Z,66.85
2018-04-09T01:27:49.875Z,66.87
2018-04-09T01:28:55.564Z,66.96
2018-04-09T01:30:01.996Z,67.04
2018-04-09T01:31:07.857Z,67.04
2018-04-09T01:32:13.652Z,67.20
2018-04-09T01:33:18.651Z,67.35
2018-04-09T01:34:24.106Z,67.30
2018-04-09T01:35:29.543Z,67.47
2018-04-09T01:36:34.438Z,67.46
2018-04-09T01:37:40.115Z,67.27
2018-04-09T01:38:45.755Z,66.99
2018-04-09T01:39:50.374Z,66.93
2018-04-09T01:40:55.230Z,66.83
2018-04-09T01:42:01.473Z,66.64
2018-04-09T01:43:08.009Z,66.50
2018-04-09T01:44:13.540Z,66.43
2018-04-09T01:45:18.599Z,66.56
2018-04-09T01:46:24.610Z,66.48
2018-04-09T01:47:29.579Z,66.37
2018-04-09T01:48:36.064Z,66.22
2018-04-09T01:49:41.416Z,66.27
2018-04-09T01:50:46.570Z,66.49
2018-04-09T01:51:53.956Z,66.73
2018-04-09T01:52:59.611Z,66.85
2018-04-09T01:54:05.402Z,66.91
2018-04-09T01:55:10.982Z,66.97
2018-04-09T01:56:16.184Z,67.11
2018-04-09T01:57:24.235Z,67.40
2018-04-09T01:58:30.150Z,67.55
2018-04-09T01:59:37.303Z,67.87
2018-04-09T02:00:41.954Z,68.12
2018-04-09T02:01:49.039Z,68.47
2018-04-09T02:02:54.743Z,68.66
2018-04-09T02:04:02.307Z,68.92
2018-04-09T02:05:07.620Z,69.16
2018-04-09T02:06:12.289Z,69.29
2018-04-09T02:07:17.008Z,69.30
2018-04-09T02:08:22.095Z,69.45
2018-04-09T02:09:28.253Z,69.49
2018-04-09T02:10:35.094Z,69.45
2018-04-09T02:11:40.755Z,69.58
2018-04-09T02:12:47.392Z,69.62
2018-04-09T02:13:53.647Z,69.47
2018-04-09T02:15:00.260Z,69.24
2018-04-09T02:16:05.683Z,68.99
2018-04-09T02:17:10.974Z,68.93
2018-04-09T02:18:15.978Z,68.74
2018-04-09T02:19:20.794Z,68.59
2018-04-09T02:20:25.504Z,68.41
2018-04-09T02:21:30.576Z,68.25
2018-04-09T02:22:35.285Z,68.12
2018-04-09T02:23:40.577Z,68.01
2018-04-09T02:24:46.625Z,68.02
2018-04-09T02:25:51.463Z,68.37
2018-04-09T02:26:58.141Z,68.54
2018-04-09T02:28:03.505Z,68.66
2018-04-09T02:29:08.388Z,68.98
2018-04-09T02:30:13.655Z,69.24
2018-04-09T02:31:18.915Z,69.30
2018-04-09T02:32:23.700Z,69.40
2018-04-09T02:33:28.471Z,69.58
2018-04-09T02:34:34.796Z,69.86
2018-04-09T02:35:39.640Z,69.94
2018-04-09T02:36:44.897Z,69.98
2018-04-09T02:37:50.602Z,70.11
2018-04-09T02:38:56.669Z,70.32
2018-04-09T02:40:01.621Z,70.49
2018-04-09T02:41:08.680Z,70.63
2018-04-09T02:42:14.598Z,70.82
2018-04-09T02:43:19.769Z,71.07
2018-04-09T02:44:24.852Z,71.09
2018-04-09T02:45:29.935Z,71.09
2018-04-09T02:46:35.387Z,71.10
2018-04-09T02:47:40.444Z,71.20
2018-04-09T02:48:45.647Z,71.38
2018-04-09T02:49:51.426Z,71.45
2018-04-09T02:50:56.137Z,71.62
2018-04-09T02:52:00.869Z,71.80
2018-04-09T02:53:06.050Z,71.79
2018-04-09T02:54:11.634Z,71.76
2018-04-09T02:55:16.922Z,71.69
2018-04-09T02:56:21.553Z,71.43
2018-04-09T02:57:26.360Z,71.30
2018-04-09T02:58:31.069Z,71.07
2018-04-09T02:59:36.146Z,71.03
2018-04-09T03:00:41.194Z,71.00
2018-04-09T03:01:45.933Z,70.97
2018-04-09T03:02:50.727Z,71.00
2018-04-09T03:03:56.474Z,71.16
2018-04-09T03:05:01.109Z,71.28
2018-04-09T03:06:05.906Z,71.16
2018-04-09T03:07:11.326Z,71.05
2018-04-09T03:08:16.620Z,71.05
2018-04-09T03:09:21.334Z,71.13
2018-04-09T03:10:26.061Z,71.45
2018-04-09T03:11:31.379Z,71.47
2018-04-09T03:12:36.621Z,71.51
2018-04-09T03:13:42.158Z,71.55
2018-04-09T03:14:47.797Z,71.62
2018-04-09T03:15:55.921Z,71.57
2018-04-09T03:17:01.056Z,71.80
2018-04-09T03:18:07.389Z,72.07
2018-04-09T03:19:12.073Z,72.16
2018-04-09T03:20:21.602Z,72.20
2018-04-09T03:21:27.092Z,72.28
2018-04-09T03:22:31.898Z,72.40
2018-04-09T03:23:38.710Z,72.56
2018-04-09T03:24:44.739Z,72.65
2018-04-09T03:25:49.872Z,72.56
2018-04-09T03:26:54.916Z,72.64
2018-04-09T03:27:59.702Z,72.82
2018-04-09T03:29:04.478Z,72.93
2018-04-09T03:30:09.377Z,72.94
2018-04-09T03:31:14.194Z,72.97
2018-04-09T03:32:20.012Z,72.84
2018-04-09T03:33:25.160Z,72.54
2018-04-09T03:34:30.496Z,72.26
2018-04-09T03:35:35.820Z,72.12
2018-04-09T03:36:40.597Z,72.21
2018-04-09T03:37:45.571Z,72.24
2018-04-09T03:38:50.306Z,72.33
2018-04-09T03:39:55.633Z,72.48
2018-04-09T03:41:00.398Z,72.53
2018-04-09T03:42:05.201Z,72.35
2018-04-09T03:43:09.934Z,72.15
2018-04-09T03:44:14.662Z,72.17
2018-04-09T03:45:19.360Z,72.17
2018-04-09T03:46:24.515Z,72.14
2018-04-09T03:47:29.261Z,72.07
2018-04-09T03:48:36.060Z,71.81
2018-04-09T03:49:41.889Z,71.65
2018-04-09T03:50:47.839Z,71.52
2018-04-09T03:51:52.662Z,71.52
2018-04-09T03:52:57.928Z,71.89
2018-04-09T03:54:02.517Z,72.20
2018-04-09T03:55:07.081Z,72.18
2018-04-09T03:56:12.391Z,72.06
2018-04-09T03:57:16.941Z,71.94
2018-04-09T03:58:21.496Z,71.90
2018-04-09T03:59:26.965Z,71.89
2018-04-09T04:00:31.874Z,71.98
2018-04-09T04:01:38.065Z,72.35
2018-04-09T04:02:43.544Z,72.67
2018-04-09T04:03:48.286Z,72.81
2018-04-09T04:04:52.982Z,73.03
2018-04-09T04:05:59.026Z,73.14
2018-04-09T04:07:05.593Z,73.26
2018-04-09T04:08:12.852Z,73.39
2018-04-09T04:09:17.507Z,73.55
2018-04-09T04:10:23.768Z,73.73
2018-04-09T04:11:29.130Z,73.81
2018-04-09T04:12:34.167Z,73.93
2018-04-09T04:13:38.996Z,74.11
2018-04-09T04:14:43.700Z,74.24
2018-04-09T04:15:53.662Z,74.31
2018-04-09T04:19:07.572Z,74.48
2018-04-09T04:20:17.351Z,74.92
2018-04-09T04:21:54.150Z,75.02
2018-04-09T04:22:59.537Z,75.21
2018-04-09T04:24:04.833Z,75.27
2018-04-09T04:25:10.600Z,75.40
2018-04-09T04:26:17.289Z,75.56
2018-04-09T04:27:22.855Z,75.68
2018-04-09T04:28:28.919Z,75.71
2018-04-09T04:29:33.954Z,75.64
2018-04-09T04:30:39.054Z,75.71
2018-04-09T04:32:57.061Z,75.57
2018-04-09T04:34:02.124Z,75.51
2018-04-09T04:35:06.894Z,75.50
2018-04-09T04:36:12.150Z,75.55
2018-04-09T04:37:18.046Z,75.39
2018-04-09T04:38:24.168Z,75.28
2018-04-09T04:39:31.929Z,75.22
2018-04-09T04:40:39.719Z,75.11
2018-04-09T04:41:44.415Z,74.93
2018-04-09T04:42:49.159Z,74.79
2018-04-09T04:43:54.066Z,74.57
2018-04-09T04:45:01.513Z,74.70
2018-04-09T04:46:08.853Z,74.65
2018-04-09T04:47:14.652Z,74.61
2018-04-09T04:48:19.502Z,74.47
2018-04-09T04:49:24.831Z,74.56
2018-04-09T04:50:32.115Z,74.58
2018-04-09T04:51:41.396Z,74.54
2018-04-09T04:52:51.919Z,74.45
2018-04-09T04:54:01.277Z,74.15
2018-04-09T04:55:08.407Z,73.92
2018-04-09T04:56:13.804Z,73.84
2018-04-09T04:57:19.017Z,73.84
2018-04-09T04:58:25.450Z,73.75
2018-04-09T04:59:30.326Z,73.88
2018-04-09T05:00:38.538Z,74.08
2018-04-09T05:01:43.614Z,74.19
2018-04-09T05:02:51.216Z,74.41
2018-04-09T05:03:56.923Z,74.65
2018-04-09T05:05:02.704Z,74.71
2018-04-09T05:06:07.434Z,74.82
2018-04-09T05:07:12.151Z,74.93
2018-04-09T05:08:17.673Z,75.08
2018-04-09T05:09:24.337Z,75.21
2018-04-09T05:10:31.993Z,75.39
2018-04-09T05:11:36.905Z,75.54
2018-04-09T05:12:41.693Z,75.49
2018-04-09T05:13:48.647Z,75.23
2018-04-09T05:16:10.709Z,74.76
2018-04-09T05:17:24.118Z,74.70
2018-04-09T05:18:33.749Z,74.49
2018-04-09T05:19:40.054Z,74.34
2018-04-09T05:22:00.989Z,74.50
2018-04-09T05:23:07.071Z,74.58
2018-04-09T05:24:12.569Z,74.64
2018-04-09T05:25:17.294Z,74.73
2018-04-09T05:26:40.740Z,74.85
2018-04-09T05:27:47.602Z,75.02
2018-04-09T05:28:52.433Z,75.05
2018-04-09T05:29:59.036Z,74.97
2018-04-09T05:31:03.919Z,74.67
2018-04-09T05:32:08.845Z,74.46
2018-04-09T05:33:15.122Z,74.45
2018-04-09T05:34:20.350Z,74.18
2018-04-09T05:35:26.595Z,74.04
2018-04-09T05:36:31.929Z,73.84
2018-04-09T05:37:36.818Z,73.59
2018-04-09T05:38:41.524Z,73.34
2018-04-09T05:39:47.075Z,73.34
2018-04-09T05:40:52.183Z,73.47
2018-04-09T05:41:57.017Z,73.64
2018-04-09T05:43:05.033Z,73.74
2018-04-09T05:44:11.881Z,73.73
2018-04-09T05:45:19.771Z,73.41
2018-04-09T05:46:28.729Z,73.20
2018-04-09T05:47:34.227Z,73.08
2018-04-09T05:48:39.005Z,72.91
2018-04-09T05:49:44.306Z,72.71
2018-04-09T05:50:49.685Z,72.59
2018-04-09T05:51:55.038Z,72.53
2018-04-09T05:53:02.798Z,72.42
2018-04-09T05:54:07.842Z,72.34
2018-04-09T05:55:16.226Z,72.18
2018-04-09T05:56:21.097Z,71.83
2018-04-09T05:57:26.848Z,71.45
2018-04-09T05:58:34.213Z,71.57
2018-04-09T05:59:40.787Z,71.84
2018-04-09T06:00:46.745Z,72.03
2018-04-09T06:04:28.491Z,71.67
2018-04-09T06:05:37.460Z,71.58
2018-04-09T06:06:43.195Z,71.40
2018-04-09T06:07:49.163Z,71.21
2018-04-09T06:08:58.813Z,70.86
2018-04-09T06:10:04.941Z,70.51
2018-04-09T06:11:10.641Z,70.47
2018-04-09T06:12:16.755Z,70.39
2018-04-09T06:13:25.999Z,70.26
2018-04-09T06:14:31.009Z,70.11
2018-04-09T06:15:35.661Z,69.97
2018-04-09T06:16:40.329Z,69.84
2018-04-09T06:17:46.086Z,69.73
2018-04-09T06:18:50.841Z,69.72
2018-04-09T06:20:04.200Z,69.62
2018-04-09T06:21:09.955Z,68.79
2018-04-09T06:22:16.290Z,67.59
2018-04-09T06:23:21.987Z,66.42
2018-04-09T06:24:28.629Z,66.40
2018-04-09T06:25:33.817Z,66.67
2018-04-09T06:26:43.070Z,67.12
2018-04-09T06:27:48.206Z,67.50
2018-04-09T06:28:55.935Z,67.83
2018-04-09T06:31:14.668Z,68.35
2018-04-09T06:32:21.422Z,68.50
2018-04-09T06:33:29.035Z,68.55
2018-04-09T06:34:37.934Z,68.50
2018-04-09T06:35:44.044Z,68.51
2018-04-09T06:36:53.105Z,68.48
2018-04-09T06:38:01.919Z,68.66
2018-04-09T06:39:07.357Z,68.69
2018-04-09T06:40:15.183Z,68.60
2018-04-09T06:41:20.119Z,68.53
2018-04-09T06:42:25.140Z,68.69
2018-04-09T06:43:31.846Z,68.93
2018-04-09T06:44:43.902Z,69.12
2018-04-09T06:45:49.921Z,69.20
2018-04-09T06:46:55.638Z,69.07
2018-04-09T06:48:02.049Z,68.53
2018-04-09T06:49:10.045Z,68.03
2018-04-09T06:50:18.056Z,67.68
2018-04-09T06:51:24.598Z,67.15
2018-04-09T06:52:30.852Z,67.12
2018-04-09T06:53:37.595Z,67.47
2018-04-09T06:54:42.876Z,67.73
2018-04-09T06:55:49.844Z,67.42
2018-04-09T06:57:03.874Z,66.91
2018-04-09T06:58:12.776Z,66.73
2018-04-09T06:59:23.458Z,66.52
2018-04-09T07:00:31.445Z,66.50
2018-04-09T07:01:36.427Z,66.37
2018-04-09T07:02:43.300Z,66.33
2018-04-09T07:03:50.114Z,66.27
2018-04-09T07:04:56.691Z,66.20
2018-04-09T07:06:07.294Z,66.07
2018-04-09T07:07:14.537Z,66.20
2018-04-09T07:08:23.922Z,66.17
2018-04-09T07:09:29.456Z,66.19
2018-04-09T07:10:34.787Z,66.15
2018-04-09T07:11:41.298Z,65.96
2018-04-09T07:12:51.024Z,66.13
2018-04-09T07:13:59.202Z,65.99
2018-04-09T07:15:04.878Z,65.97
2018-04-09T07:16:15.087Z,65.85
2018-04-09T07:17:19.930Z,65.72
2018-04-09T07:19:37.814Z,65.68
2018-04-09T07:20:43.483Z,65.57
2018-04-09T07:21:50.488Z,65.28
2018-04-09T07:22:57.562Z,65.18
2018-04-09T07:24:03.911Z,65.12
2018-04-09T07:25:15.649Z,65.12
2018-04-09T07:26:24.017Z,65.21
2018-04-09T07:27:32.050Z,65.32
2018-04-09T07:28:39.955Z,65.37
2018-04-09T07:29:45.977Z,65.11
2018-04-09T07:30:53.849Z,64.58
2018-04-09T07:32:02.096Z,64.16
2018-04-09T07:33:09.350Z,63.86
2018-04-09T07:34:15.314Z,63.61
2018-04-09T07:35:21.686Z,63.34
2018-04-09T07:36:29.169Z,63.33
2018-04-09T07:37:35.395Z,63.22
2018-04-09T07:38:40.806Z,63.06
2018-04-09T07:39:47.833Z,62.86
2018-04-09T07:40:52.805Z,62.81
2018-04-09T07:41:59.683Z,62.79
2018-04-09T07:43:06.486Z,62.51
2018-04-09T07:44:12.441Z,62.12
2018-04-09T07:45:19.133Z,61.79
2018-04-09T07:46:26.850Z,61.63
2018-04-09T07:47:33.141Z,61.57
2018-04-09T07:48:39.761Z,61.42
2018-04-09T07:49:46.683Z,61.01
2018-04-09T07:50:52.138Z,60.76
2018-04-09T07:51:56.972Z,60.42
2018-04-09T07:53:06.747Z,60.26
2018-04-09T07:54:13.530Z,60.17
2018-04-09T07:55:34.032Z,60.08
2018-04-09T07:56:45.554Z,59.87
2018-04-09T07:57:55.972Z,59.85
2018-04-09T07:59:02.637Z,59.86
2018-04-09T08:00:09.742Z,59.71
2018-04-09T08:01:21.833Z,59.72
2018-04-09T08:02:27.913Z,59.78
2018-04-09T08:03:41.753Z,59.85
2018-04-09T08:04:49.598Z,59.72
2018-04-09T08:05:54.990Z,59.65
2018-04-09T08:07:11.284Z,59.53
2018-04-09T08:08:19.773Z,59.55
2018-04-09T08:09:27.825Z,59.39
2018-04-09T08:10:33.578Z,59.28
2018-04-09T08:11:42.286Z,59.04
2018-04-09T08:12:48.749Z,58.87
2018-04-09T08:13:58.895Z,58.67
2018-04-09T08:15:03.936Z,58.47
2018-04-09T08:17:21.907Z,57.79
2018-04-09T08:18:26.660Z,57.76
2018-04-09T08:19:34.770Z,57.75
2018-04-09T08:20:40.986Z,57.44
2018-04-09T08:21:50.151Z,57.16
2018-04-09T08:22:55.004Z,57.15
2018-04-09T08:24:00.279Z,57.23
2018-04-09T08:25:06.886Z,57.04
2018-04-09T08:26:12.802Z,56.04
2018-04-09T08:27:20.844Z,55.46
2018-04-09T08:28:28.721Z,55.05
2018-04-09T08:29:35.120Z,54.66
2018-04-09T08:30:45.122Z,54.19
2018-04-09T08:31:54.451Z,54.39
2018-04-09T08:33:02.363Z,54.47
2018-04-09T08:34:10.445Z,54.64
2018-04-09T08:35:17.673Z,54.54
2018-04-09T08:36:22.866Z,54.22
2018-04-09T08:37:36.001Z,53.90
2018-04-09T08:38:43.977Z,53.62
2018-04-09T08:39:52.134Z,53.32
2018-04-09T08:41:01.090Z,52.99
2018-04-09T08:42:22.785Z,52.86
2018-04-09T08:43:28.733Z,52.84
2018-04-09T08:44:37.853Z,52.53
2018-04-09T08:45:45.237Z,52.22
2018-04-09T08:46:59.987Z,52.18
2018-04-09T08:48:09.784Z,52.09
2018-04-09T08:49:16.614Z,52.04
2018-04-09T08:50:50.686Z,51.99
2018-04-09T08:51:59.955Z,51.73
2018-04-09T08:53:10.602Z,51.51
2018-04-09T08:54:18.712Z,51.17
2018-04-09T08:55:30.875Z,50.67
2018-04-09T10:18:08.637Z,41.66
2018-04-09T10:19:15.129Z,41.83
2018-04-09T10:20:24.100Z,41.98
2018-04-09T10:21:29.901Z,42.10
2018-04-09T10:22:36.555Z,42.07
2018-04-09T10:23:42.580Z,41.92
2018-04-09T10:24:48.059Z,41.91
2018-04-09T10:25:56.061Z,41.94
2018-04-09T10:27:05.274Z,41.94
2018-04-09T10:28:10.565Z,41.87
2018-04-09T10:29:17.686Z,41.45
2018-04-09T10:30:26.805Z,41.36
2018-04-09T10:31:33.555Z,41.08
2018-04-09T10:32:40.060Z,41.03
2018-04-09T10:33:47.034Z,40.17
2018-04-09T10:34:53.584Z,39.78
2018-04-09T10:36:00.261Z,39.64
2018-04-09T10:37:06.123Z,40.13
2018-04-09T10:38:14.597Z,40.39
2018-04-09T10:39:22.417Z,40.52
2018-04-09T10:40:28.975Z,40.46
2018-04-09T10:41:36.236Z,40.53
2018-04-09T10:42:43.968Z,40.27
2018-04-09T10:43:54.672Z,40.33
2018-04-09T10:45:01.839Z,40.42
2018-04-09T10:46:07.973Z,39.80
2018-04-09T10:47:13.180Z,39.62
2018-04-09T10:48:20.307Z,39.66
2018-04-09T10:49:25.898Z,39.44
2018-04-09T10:50:33.761Z,39.37
2018-04-09T10:51:40.142Z,39.44
2018-04-09T10:52:45.190Z,39.46
2018-04-09T10:53:50.062Z,39.32
2018-04-09T10:54:55.287Z,39.15
2018-04-09T10:56:02.047Z,39.00
2018-04-09T10:57:06.985Z,38.97
2018-04-09T10:58:12.262Z,38.98
2018-04-09T10:59:17.136Z,38.73
2018-04-09T11:00:21.879Z,38.63
2018-04-09T11:01:27.093Z,38.37
2018-04-09T11:02:31.969Z,37.95
2018-04-09T11:03:36.819Z,37.71
2018-04-09T11:04:41.986Z,37.28
2018-04-09T11:05:46.893Z,37.20
2018-04-09T11:06:51.803Z,37.10
2018-04-09T11:07:56.704Z,37.06
2018-04-09T11:09:02.161Z,37.23
2018-04-09T11:10:07.037Z,37.02
2018-04-09T11:11:12.425Z,37.00
2018-04-09T11:12:17.317Z,37.04
2018-04-09T11:13:22.874Z,37.23
2018-04-09T11:14:27.964Z,37.33
2018-04-09T11:15:32.856Z,37.44
2018-04-09T11:16:38.567Z,37.39
2018-04-09T11:17:44.187Z,37.18
2018-04-09T11:18:49.459Z,37.12
2018-04-09T11:19:54.318Z,37.08
2018-04-09T11:20:59.544Z,37.11
2018-04-09T11:22:06.185Z,36.92
2018-04-09T11:23:11.684Z,36.77
2018-04-09T11:24:17.009Z,36.84
2018-04-09T11:25:22.079Z,36.70
2018-04-09T11:26:27.190Z,36.49
2018-04-09T11:27:32.266Z,36.33
2018-04-09T11:28:37.494Z,36.18
2018-04-09T11:29:42.393Z,36.02
2018-04-09T11:30:48.188Z,35.85
2018-04-09T11:31:53.699Z,35.57
2018-04-09T11:32:58.842Z,35.55
2018-04-09T11:34:03.948Z,35.48
2018-04-09T11:35:09.132Z,35.27
2018-04-09T11:36:14.284Z,35.21
2018-04-09T11:37:19.844Z,35.33
2018-04-09T11:38:24.744Z,35.38
2018-04-09T11:39:29.604Z,35.48
2018-04-09T11:40:34.891Z,35.73
2018-04-09T11:41:40.594Z,35.71
2018-04-09T11:42:46.978Z,35.65
2018-04-09T11:43:52.815Z,35.63
2018-04-09T11:44:57.785Z,36.00
2018-04-09T11:46:02.635Z,36.28
2018-04-09T11:47:07.932Z,36.11
2018-04-09T11:48:13.730Z,35.99
2018-04-09T11:49:18.952Z,35.86
2018-04-09T11:50:24.321Z,36.03
2018-04-09T11:51:29.131Z,36.15
2018-04-09T11:52:33.824Z,35.97
2018-04-09T11:53:38.581Z,35.86
2018-04-09T11:54:43.369Z,35.85
2018-04-09T11:55:48.110Z,36.00
2018-04-09T11:56:53.509Z,35.75
2018-04-09T11:59:01.846Z,35.52
2018-04-09T12:00:06.863Z,35.55
2018-04-09T12:01:11.565Z,35.54
2018-04-09T12:02:16.427Z,35.69
2018-04-09T12:03:21.898Z,35.97
2018-04-09T12:04:26.660Z,35.96
2018-04-09T12:05:31.478Z,35.98
2018-04-09T12:06:36.211Z,35.85
2018-04-09T12:07:40.877Z,35.77
2018-04-09T12:08:45.617Z,35.62
2018-04-09T12:09:50.637Z,35.34
2018-04-09T12:10:55.349Z,35.32
2018-04-09T12:12:00.013Z,35.09
2018-04-09T12:13:04.729Z,34.85
2018-04-09T12:14:09.428Z,34.58
2018-04-09T12:15:14.107Z,34.59
2018-04-09T12:16:19.436Z,34.43
2018-04-09T12:17:24.170Z,34.62
2018-04-09T12:18:28.970Z,34.74
2018-04-09T12:19:33.707Z,34.76
2018-04-09T12:20:38.800Z,34.82
2018-04-09T12:21:43.686Z,34.76
2018-04-09T12:22:50.875Z,34.81
2018-04-09T12:23:57.247Z,34.65
2018-04-09T12:25:01.971Z,34.60
2018-04-09T12:26:07.429Z,34.54
2018-04-09T12:27:18.500Z,34.66
2018-04-09T12:28:23.331Z,34.59
2018-04-09T12:29:28.384Z,34.69
2018-04-09T12:30:33.835Z,34.89
2018-04-09T12:31:39.024Z,34.87
2018-04-09T12:32:43.712Z,34.64
2018-04-09T12:33:48.447Z,34.69
2018-04-09T12:34:53.161Z,34.86
2018-04-09T12:35:58.340Z,34.75
2018-04-09T12:37:03.036Z,34.82
2018-04-09T12:38:07.766Z,34.88
2018-04-09T12:39:12.480Z,34.77
2018-04-09T12:40:17.504Z,34.64
2018-04-09T12:41:23.119Z,34.47
2018-04-09T12:42:28.323Z,34.49
2018-04-09T12:43:33.132Z,34.57
2018-04-09T12:44:37.867Z,34.37
2018-04-09T12:45:42.503Z,34.17
2018-04-09T12:46:47.192Z,33.77
2018-04-09T12:47:52.435Z,33.67
2018-04-09T12:48:57.523Z,33.64
2018-04-09T12:50:02.406Z,33.27
2018-04-09T12:51:07.049Z,33.20
2018-04-09T12:52:11.769Z,33.38
2018-04-09T12:53:16.457Z,33.69
2018-04-09T12:54:21.209Z,33.77
2018-04-09T12:55:25.887Z,33.71
2018-04-09T12:56:30.885Z,33.62
2018-04-09T12:57:35.548Z,33.74
2018-04-09T12:58:40.235Z,33.71
2018-04-09T12:59:44.921Z,33.68
2018-04-09T13:01:56.920Z,33.46
2018-04-09T13:03:01.667Z,33.59
2018-04-09T13:04:06.383Z,33.37
2018-04-09T13:05:11.078Z,33.42
2018-04-09T13:06:16.306Z,33.36
2018-04-09T13:07:22.271Z,33.24
2018-04-09T13:08:27.855Z,33.18
2018-04-09T13:09:32.872Z,33.17
2018-04-09T13:10:38.166Z,33.00
2018-04-09T13:11:42.845Z,33.05
2018-04-09T13:12:49.010Z,33.03
2018-04-09T13:13:59.735Z,33.09
2018-04-09T13:15:11.123Z,32.88
2018-04-09T13:16:18.008Z,32.80
2018-04-09T13:17:22.912Z,32.80
2018-04-09T13:18:30.196Z,32.61
2018-04-09T13:19:38.824Z,32.63
2018-04-09T13:20:43.809Z,32.62
2018-04-09T13:21:48.533Z,32.69
2018-04-09T13:22:54.171Z,32.84
2018-04-09T13:24:04.531Z,32.88
2018-04-09T13:25:09.646Z,33.07
2018-04-09T13:26:14.369Z,32.89
2018-04-09T13:27:20.240Z,32.77
2018-04-09T13:28:24.987Z,32.70
2018-04-09T13:29:34.468Z,32.64
2018-04-09T13:30:39.341Z,32.59
2018-04-09T13:31:44.992Z,32.48
2018-04-09T13:32:55.109Z,32.61
2018-04-09T13:33:59.786Z,32.84
2018-04-09T13:35:06.441Z,32.95
2018-04-09T13:36:11.546Z,33.00
2018-04-09T13:37:18.293Z,32.93
2018-04-09T13:38:23.016Z,32.93
2018-04-09T13:39:28.511Z,32.95
2018-04-09T13:40:33.801Z,32.90
2018-04-09T13:41:39.156Z,32.87
2018-04-09T13:42:45.594Z,32.77
2018-04-09T13:43:52.549Z,32.85
2018-04-09T13:44:57.602Z,32.94
2018-04-09T13:46:02.728Z,33.00
2018-04-09T13:47:07.866Z,32.81
2018-04-09T13:48:13.450Z,32.82
2018-04-09T13:49:22.370Z,32.87
2018-04-09T13:50:35.251Z,32.86
2018-04-09T13:51:43.000Z,32.68
2018-04-09T13:52:53.429Z,32.71
2018-04-09T13:54:00.949Z,32.73
2018-04-09T13:55:07.178Z,32.83
2018-04-09T13:56:14.025Z,32.94
2018-04-09T13:57:19.554Z,33.04
2018-04-09T13:58:29.849Z,33.02
2018-04-09T13:59:36.815Z,33.17
2018-04-09T14:00:45.131Z,33.12
2018-04-09T14:01:51.419Z,33.08
2018-04-09T14:02:57.216Z,33.09
2018-04-09T14:04:02.520Z,33.13
2018-04-09T14:05:08.423Z,33.30
2018-04-09T14:06:13.819Z,33.41
2018-04-09T14:07:18.709Z,33.33
2018-04-09T14:08:31.095Z,33.41
2018-04-09T14:09:38.212Z,33.59
2018-04-09T14:10:49.611Z,33.67
2018-04-09T14:11:54.630Z,33.79
2018-04-09T14:12:59.444Z,33.90
2018-04-09T14:14:04.203Z,34.12
2018-04-09T14:15:10.128Z,34.42
2018-04-09T14:16:17.479Z,34.56
2018-04-09T14:17:22.184Z,34.81
2018-04-09T14:18:27.503Z,34.98
2018-04-09T14:19:32.184Z,34.98
2018-04-09T14:20:36.849Z,35.05
2018-04-09T14:21:41.564Z,34.97
2018-04-09T14:22:46.727Z,35.12
2018-04-09T14:23:51.643Z,35.07
2018-04-09T14:24:57.494Z,35.10
2018-04-09T14:26:06.980Z,35.21
2018-04-09T14:27:12.041Z,35.19
2018-04-09T14:28:16.963Z,35.24
2018-04-09T14:29:22.799Z,35.29
2018-04-09T14:30:27.438Z,35.31
2018-04-09T14:31:32.090Z,35.31
2018-04-09T14:32:39.731Z,35.28
2018-04-09T14:33:45.376Z,35.39
2018-04-09T14:34:50.108Z,35.50
2018-04-09T14:35:55.301Z,35.50
2018-04-09T14:36:59.978Z,35.50
2018-04-09T14:38:04.796Z,35.50
2018-04-09T14:39:09.547Z,35.54
2018-04-09T14:40:14.178Z,35.68
2018-04-09T14:41:19.660Z,35.76
2018-04-09T14:42:25.793Z,35.77
2018-04-09T14:43:31.073Z,35.88
2018-04-09T14:44:35.761Z,35.98
2018-04-09T14:45:40.495Z,36.09
2018-04-09T14:46:46.632Z,36.17
2018-04-09T14:47:52.291Z,36.08
2018-04-09T14:48:58.201Z,36.17
2018-04-09T14:50:02.930Z,36.23
2018-04-09T14:51:08.576Z,36.17
2018-04-09T14:52:13.422Z,36.22
2018-04-09T14:53:18.239Z,36.25
2018-04-09T14:54:23.597Z,36.18
2018-04-09T14:55:29.185Z,36.19
2018-04-09T14:56:34.749Z,36.25
2018-04-09T14:57:39.625Z,36.31
2018-04-09T14:58:46.068Z,36.43
2018-04-09T14:59:52.852Z,36.55
2018-04-09T15:00:58.120Z,36.51
2018-04-09T15:02:08.410Z,36.51
2018-04-09T15:03:13.194Z,36.61
2018-04-09T15:04:19.429Z,36.54
2018-04-09T15:05:24.780Z,36.43
2018-04-09T15:06:29.576Z,36.52
2018-04-09T15:07:35.547Z,36.57
2018-04-09T15:08:43.803Z,36.63
2018-04-09T15:09:52.679Z,36.71
2018-04-09T15:10:57.747Z,36.64
2018-04-09T15:12:02.386Z,36.64
2018-04-09T15:13:07.643Z,36.63
2018-04-09T15:14:16.196Z,36.68
2018-04-09T15:15:21.352Z,36.70
2018-04-09T15:16:25.989Z,36.78
2018-04-09T15:17:30.630Z,36.87
2018-04-09T15:18:35.311Z,36.93
2018-04-09T15:19:39.956Z,37.04
2018-04-09T15:20:45.085Z,37.02
2018-04-09T15:21:49.765Z,37.03
2018-04-09T15:22:54.415Z,37.04
2018-04-09T15:23:59.528Z,37.05
2018-04-09T15:25:05.257Z,37.11
2018-04-09T15:26:15.867Z,37.20
2018-04-09T15:27:21.070Z,37.25
2018-04-09T15:28:30.800Z,37.29
2018-04-09T15:29:35.533Z,37.30
2018-04-09T15:30:40.608Z,37.30
2018-04-09T15:31:45.892Z,37.32
2018-04-09T15:32:51.315Z,37.42
2018-04-09T15:33:58.016Z,37.40
2018-04-09T15:35:03.608Z,37.42
2018-04-09T15:36:08.853Z,37.46
2018-04-09T15:37:14.200Z,37.49
2018-04-09T15:38:25.206Z,37.53
2018-04-09T15:39:33.447Z,37.67
2018-04-09T15:40:38.721Z,37.71
2018-04-09T15:41:45.136Z,37.76
2018-04-09T15:42:53.619Z,37.76
2018-04-09T15:44:05.183Z,37.77
2018-04-09T15:45:11.590Z,37.80
2018-04-09T15:46:17.731Z,37.92
2018-04-09T15:47:24.959Z,37.93
2018-04-09T15:48:30.590Z,37.99
2018-04-09T15:49:41.066Z,38.06